sensor_id;sensor_type;location;lat;lon;timestamp;pressure;altitude;pressure_sealevel;temperature;humidity
6136;BME280;24008;42.664;23.372;2023-04-27T00:01:18;94467.59;;;8.07;58.15
6136;BME280;24008;42.664;23.372;2023-04-27T00:03:45;94362.78;;;7.63;57.11
6136;BME280;24008;42.664;23.372;2023-04-27T00:06:12;94423.22;;;8.00;57.60
6136;BME280;24008;42.664;23.372;2023-04-27T00:08:38;94402.19;;;7.78;57.29
6136;BME280;24008;42.664;23.372;2023-04-27T00:11:06;94340.41;;;7.38;57.14
6136;BME280;24008;42.664;23.372;2023-04-27T00:13:33;94444.81;;;7.95;57.05
6136;BME280;24008;42.664;23.372;2023-04-27T00:16:00;94440.22;;;7.89;56.74
6136;BME280;24008;42.664;23.372;2023-04-27T00:18:28;94301.94;;;7.02;57.05
6136;BME280;24008;42.664;23.372;2023-04-27T00:20:55;94445.84;;;7.83;57.01
6136;BME280;24008;42.664;23.372;2023-04-27T00:23:22;94349.22;;;7.24;57.61
6136;BME280;24008;42.664;23.372;2023-04-27T00:25:48;94448.22;;;7.75;57.28
6136;BME280;24008;42.664;23.372;2023-04-27T00:28:16;94414.97;;;7.48;57.60
6136;BME280;24008;42.664;23.372;2023-04-27T00:30:43;94326.75;;;6.89;57.70
6136;BME280;24008;42.664;23.372;2023-04-27T00:33:10;94445.13;;;7.62;57.53
6136;BME280;24008;42.664;23.372;2023-04-27T00:35:37;94406.78;;;7.35;58.33
6136;BME280;24008;42.664;23.372;2023-04-27T00:38:04;94228.13;;;6.14;58.38
6136;BME280;24008;42.664;23.372;2023-04-27T00:40:31;94392.25;;;7.16;58.21
6136;BME280;24008;42.664;23.372;2023-04-27T00:42:57;94446.00;;;7.42;58.27
6136;BME280;24008;42.664;23.372;2023-04-27T00:45:26;94412.06;;;7.12;58.78
6136;BME280;24008;42.664;23.372;2023-04-27T00:47:54;94453.28;;;7.26;58.95
6136;BME280;24008;42.664;23.372;2023-04-27T00:50:26;94453.81;;;7.19;58.70
6136;BME280;24008;42.664;23.372;2023-04-27T00:52:54;94182.66;;;5.39;58.69
6136;BME280;24008;42.664;23.372;2023-04-27T00:55:21;94456.44;;;7.08;59.67
6136;BME280;24008;42.664;23.372;2023-04-27T00:57:48;94449.97;;;7.04;59.39
6136;BME280;24008;42.664;23.372;2023-04-27T01:00:15;94458.13;;;6.98;59.32
6136;BME280;24008;42.664;23.372;2023-04-27T01:02:43;94387.78;;;6.47;59.15
6136;BME280;24008;42.664;23.372;2023-04-27T01:05:12;94434.97;;;6.71;59.77
6136;BME280;24008;42.664;23.372;2023-04-27T01:07:39;94396.50;;;6.34;59.80
6136;BME280;24008;42.664;23.372;2023-04-27T01:10:07;94456.28;;;6.59;60.26
6136;BME280;24008;42.664;23.372;2023-04-27T01:12:34;94408.75;;;6.29;59.81
6136;BME280;24008;42.664;23.372;2023-04-27T01:15:01;94468.91;;;6.70;60.42
6136;BME280;24008;42.664;23.372;2023-04-27T01:17:28;94374.66;;;6.01;59.96
6136;BME280;24008;42.664;23.372;2023-04-27T01:19:57;94465.38;;;6.61;60.92
6136;BME280;24008;42.664;23.372;2023-04-27T01:22:24;94474.16;;;6.57;61.22
6136;BME280;24008;42.664;23.372;2023-04-27T01:24:54;94471.84;;;6.54;61.12
6136;BME280;24008;42.664;23.372;2023-04-27T01:27:21;94366.47;;;5.86;61.20
6136;BME280;24008;42.664;23.372;2023-04-27T01:29:50;94466.38;;;6.49;60.74
6136;BME280;24008;42.664;23.372;2023-04-27T01:32:17;94470.88;;;6.45;61.12
6136;BME280;24008;42.664;23.372;2023-04-27T01:34:44;94473.75;;;6.41;60.87
6136;BME280;24008;42.664;23.372;2023-04-27T01:37:10;94433.69;;;6.03;61.23
6136;BME280;24008;42.664;23.372;2023-04-27T01:39:37;94420.53;;;5.98;61.00
6136;BME280;24008;42.664;23.372;2023-04-27T01:42:05;94486.16;;;6.34;60.72
6136;BME280;24008;42.664;23.372;2023-04-27T01:44:32;94486.97;;;6.35;60.84
6136;BME280;24008;42.664;23.372;2023-04-27T01:46:59;94450.25;;;6.07;61.30
6136;BME280;24008;42.664;23.372;2023-04-27T01:49:26;94444.47;;;6.05;61.24
6136;BME280;24008;42.664;23.372;2023-04-27T01:51:53;94480.88;;;6.26;61.39
6136;BME280;24008;42.664;23.372;2023-04-27T01:54:19;94453.28;;;6.01;61.74
6136;BME280;24008;42.664;23.372;2023-04-27T01:56:46;94465.00;;;6.13;61.36
6136;BME280;24008;42.664;23.372;2023-04-27T01:59:14;94252.31;;;4.47;61.33
6136;BME280;24008;42.664;23.372;2023-04-27T02:01:41;94428.88;;;5.77;61.67
6136;BME280;24008;42.664;23.372;2023-04-27T02:04:08;94430.06;;;5.62;62.02
6136;BME280;24008;42.664;23.372;2023-04-27T02:06:35;94483.56;;;6.13;61.84
6136;BME280;24008;42.664;23.372;2023-04-27T02:09:02;94491.31;;;6.12;61.85
6136;BME280;24008;42.664;23.372;2023-04-27T02:11:28;94449.38;;;5.86;61.58
6136;BME280;24008;42.664;23.372;2023-04-27T02:13:56;94392.06;;;5.51;61.74
6136;BME280;24008;42.664;23.372;2023-04-27T02:16:24;94491.66;;;6.07;62.21
6136;BME280;24008;42.664;23.372;2023-04-27T02:18:51;94491.06;;;6.04;62.09
6136;BME280;24008;42.664;23.372;2023-04-27T02:21:18;94490.28;;;6.03;62.70
6136;BME280;24008;42.664;23.372;2023-04-27T02:23:46;94495.03;;;5.97;61.64
6136;BME280;24008;42.664;23.372;2023-04-27T02:26:16;94462.75;;;5.76;61.42
6136;BME280;24008;42.664;23.372;2023-04-27T02:28:43;94491.56;;;5.98;61.91
6136;BME280;24008;42.664;23.372;2023-04-27T02:31:10;94488.34;;;5.96;61.73
6136;BME280;24008;42.664;23.372;2023-04-27T02:33:39;94498.47;;;5.96;61.21
6136;BME280;24008;42.664;23.372;2023-04-27T02:36:07;94485.09;;;5.94;62.22
6136;BME280;24008;42.664;23.372;2023-04-27T02:38:34;94494.69;;;5.90;61.97
6136;BME280;24008;42.664;23.372;2023-04-27T02:41:01;94377.84;;;5.17;62.16
6136;BME280;24008;42.664;23.372;2023-04-27T02:43:28;94493.28;;;5.86;61.90
6136;BME280;24008;42.664;23.372;2023-04-27T02:45:54;94497.56;;;5.86;62.08
6136;BME280;24008;42.664;23.372;2023-04-27T02:48:21;94499.16;;;5.87;62.61
6136;BME280;24008;42.664;23.372;2023-04-27T02:50:49;94498.34;;;5.86;62.09
6136;BME280;24008;42.664;23.372;2023-04-27T02:53:16;94494.09;;;5.87;61.66
6136;BME280;24008;42.664;23.372;2023-04-27T02:55:46;94498.34;;;5.86;61.85
6136;BME280;24008;42.664;23.372;2023-04-27T02:58:13;94497.56;;;5.86;61.66
6136;BME280;24008;42.664;23.372;2023-04-27T03:00:41;94491.91;;;5.82;61.55
6136;BME280;24008;42.664;23.372;2023-04-27T03:03:08;94505.84;;;5.88;61.16
6136;BME280;24008;42.664;23.372;2023-04-27T03:05:35;94514.31;;;5.88;61.21
6136;BME280;24008;42.664;23.372;2023-04-27T03:08:04;94509.31;;;5.87;62.07
6136;BME280;24008;42.664;23.372;2023-04-27T03:10:31;94522.91;;;5.86;61.63
6136;BME280;24008;42.664;23.372;2023-04-27T03:13:17;94511.03;;;5.86;61.74
6136;BME280;24008;42.664;23.372;2023-04-27T03:15:44;94516.22;;;5.85;61.43
6136;BME280;24008;42.664;23.372;2023-04-27T03:18:11;94374.97;;;4.88;61.32
6136;BME280;24008;42.664;23.372;2023-04-27T03:20:38;94527.41;;;5.82;61.23
6136;BME280;24008;42.664;23.372;2023-04-27T03:23:06;94531.00;;;5.79;61.20
6136;BME280;24008;42.664;23.372;2023-04-27T03:25:33;94448.06;;;5.26;61.56
6136;BME280;24008;42.664;23.372;2023-04-27T03:28:00;94521.19;;;5.75;61.19
6136;BME280;24008;42.664;23.372;2023-04-27T03:30:28;94284.16;;;4.16;62.10
6136;BME280;24008;42.664;23.372;2023-04-27T03:32:57;94423.44;;;5.05;62.13
6136;BME280;24008;42.664;23.372;2023-04-27T03:35:24;94528.22;;;5.71;61.75
6136;BME280;24008;42.664;23.372;2023-04-27T03:37:51;94528.13;;;5.73;61.14
6136;BME280;24008;42.664;23.372;2023-04-27T03:40:20;94533.06;;;5.74;61.60
6136;BME280;24008;42.664;23.372;2023-04-27T03:42:47;94530.53;;;5.74;61.10
6136;BME280;24008;42.664;23.372;2023-04-27T03:45:14;94427.22;;;5.00;60.58
6136;BME280;24008;42.664;23.372;2023-04-27T03:47:43;94541.81;;;5.70;61.57
6136;BME280;24008;42.664;23.372;2023-04-27T03:50:10;94546.78;;;5.72;61.75
6136;BME280;24008;42.664;23.372;2023-04-27T03:52:37;94545.97;;;5.71;61.21
6136;BME280;24008;42.664;23.372;2023-04-27T03:55:05;94365.97;;;4.61;60.86
6136;BME280;24008;42.664;23.372;2023-04-27T03:57:33;94537.91;;;5.77;61.06
6136;BME280;24008;42.664;23.372;2023-04-27T04:00:00;94553.03;;;5.79;61.32
6136;BME280;24008;42.664;23.372;2023-04-27T04:02:29;94540.78;;;5.62;60.92
6136;BME280;24008;42.664;23.372;2023-04-27T04:04:56;94568.38;;;5.89;61.55
6136;BME280;24008;42.664;23.372;2023-04-27T04:07:22;94562.81;;;5.95;61.14
6136;BME280;24008;42.664;23.372;2023-04-27T04:09:49;94570.66;;;6.03;61.22
6136;BME280;24008;42.664;23.372;2023-04-27T04:12:16;94510.47;;;5.71;61.07
6136;BME280;24008;42.664;23.372;2023-04-27T04:14:44;94604.66;;;6.11;60.52
6136;BME280;24008;42.664;23.372;2023-04-27T04:17:13;94572.94;;;6.17;60.65
6136;BME280;24008;42.664;23.372;2023-04-27T04:19:40;94562.38;;;6.01;59.94
6136;BME280;24008;42.664;23.372;2023-04-27T04:22:07;94580.28;;;6.31;59.65
6136;BME280;24008;42.664;23.372;2023-04-27T04:24:34;94458.28;;;5.58;60.29
6136;BME280;24008;42.664;23.372;2023-04-27T04:27:02;94518.97;;;6.04;59.38
6136;BME280;24008;42.664;23.372;2023-04-27T04:29:29;94581.75;;;6.45;58.70
6136;BME280;24008;42.664;23.372;2023-04-27T04:31:57;94594.44;;;6.56;58.14
6136;BME280;24008;42.664;23.372;2023-04-27T04:34:24;94594.78;;;6.63;57.73
6136;BME280;24008;42.664;23.372;2023-04-27T04:36:50;94595.66;;;6.73;58.00
6136;BME280;24008;42.664;23.372;2023-04-27T04:39:18;94552.56;;;6.50;57.53
6136;BME280;24008;42.664;23.372;2023-04-27T04:41:45;94376.03;;;5.51;57.30
6136;BME280;24008;42.664;23.372;2023-04-27T04:44:13;94598.69;;;6.99;56.86
6136;BME280;24008;42.664;23.372;2023-04-27T04:46:40;94570.28;;;6.94;56.47
6136;BME280;24008;42.664;23.372;2023-04-27T04:49:08;94596.63;;;7.55;56.26
6136;BME280;24008;42.664;23.372;2023-04-27T04:51:35;94609.63;;;8.62;54.56
6136;BME280;24008;42.664;23.372;2023-04-27T04:54:02;94604.84;;;9.83;51.26
6136;BME280;24008;42.664;23.372;2023-04-27T04:56:28;94610.81;;;10.83;46.54
6136;BME280;24008;42.664;23.372;2023-04-27T04:58:55;94605.66;;;11.54;45.77
6136;BME280;24008;42.664;23.372;2023-04-27T05:01:22;94607.09;;;12.01;43.58
6136;BME280;24008;42.664;23.372;2023-04-27T05:03:49;94620.00;;;12.25;42.79
6136;BME280;24008;42.664;23.372;2023-04-27T05:06:17;94620.25;;;12.40;42.18
6136;BME280;24008;42.664;23.372;2023-04-27T05:08:44;94621.03;;;12.90;41.09
6136;BME280;24008;42.664;23.372;2023-04-27T05:11:10;94612.28;;;13.33;40.27
6136;BME280;24008;42.664;23.372;2023-04-27T05:13:37;94621.34;;;14.01;38.97
6136;BME280;24008;42.664;23.372;2023-04-27T05:16:05;94605.25;;;14.23;38.61
6136;BME280;24008;42.664;23.372;2023-04-27T05:18:32;94625.72;;;14.00;38.95
6136;BME280;24008;42.664;23.372;2023-04-27T05:20:59;94598.16;;;13.54;39.34
6136;BME280;24008;42.664;23.372;2023-04-27T05:23:27;94626.56;;;13.68;39.08
6136;BME280;24008;42.664;23.372;2023-04-27T05:25:54;94623.25;;;12.77;40.31
6136;BME280;24008;42.664;23.372;2023-04-27T05:28:21;94574.31;;;11.61;41.29
6136;BME280;24008;42.664;23.372;2023-04-27T05:30:48;94605.41;;;10.69;43.66
6136;BME280;24008;42.664;23.372;2023-04-27T05:33:14;94649.66;;;10.42;44.87
6136;BME280;24008;42.664;23.372;2023-04-27T05:35:41;94635.72;;;9.80;46.31
6136;BME280;24008;42.664;23.372;2023-04-27T05:38:08;94636.72;;;9.60;47.20
6136;BME280;24008;42.664;23.372;2023-04-27T05:40:36;94645.47;;;9.48;48.68
6136;BME280;24008;42.664;23.372;2023-04-27T05:43:03;94612.75;;;9.14;47.89
6136;BME280;24008;42.664;23.372;2023-04-27T05:45:30;94586.31;;;8.77;48.48
6136;BME280;24008;42.664;23.372;2023-04-27T05:47:56;94652.19;;;9.10;48.87
6136;BME280;24008;42.664;23.372;2023-04-27T05:50:23;94648.72;;;9.01;48.87
6136;BME280;24008;42.664;23.372;2023-04-27T05:52:50;94652.31;;;8.89;49.73
6136;BME280;24008;42.664;23.372;2023-04-27T05:55:17;94651.63;;;8.97;51.18
6136;BME280;24008;42.664;23.372;2023-04-27T05:57:46;94588.56;;;8.60;50.55
6136;BME280;24008;42.664;23.372;2023-04-27T06:00:14;94439.66;;;7.67;50.07
6136;BME280;24008;42.664;23.372;2023-04-27T06:02:41;94525.59;;;8.13;50.05
6136;BME280;24008;42.664;23.372;2023-04-27T06:05:08;94665.31;;;8.77;51.25
6136;BME280;24008;42.664;23.372;2023-04-27T06:07:38;94653.81;;;8.92;51.42
6136;BME280;24008;42.664;23.372;2023-04-27T06:10:09;94641.44;;;8.97;50.59
6136;BME280;24008;42.664;23.372;2023-04-27T06:12:36;94654.34;;;9.15;51.08
6136;BME280;24008;42.664;23.372;2023-04-27T06:15:05;94656.22;;;9.32;50.52
6136;BME280;24008;42.664;23.372;2023-04-27T06:17:34;94657.03;;;9.52;49.77
6136;BME280;24008;42.664;23.372;2023-04-27T06:20:01;94662.75;;;9.73;49.60
6136;BME280;24008;42.664;23.372;2023-04-27T06:22:28;94653.59;;;9.90;49.30
6136;BME280;24008;42.664;23.372;2023-04-27T06:24:55;94653.97;;;9.95;48.95
6136;BME280;24008;42.664;23.372;2023-04-27T06:27:22;94571.31;;;9.59;49.96
6136;BME280;24008;42.664;23.372;2023-04-27T06:29:49;94654.94;;;10.31;49.96
6136;BME280;24008;42.664;23.372;2023-04-27T06:32:17;94656.31;;;10.53;48.46
6136;BME280;24008;42.664;23.372;2023-04-27T06:34:44;94599.50;;;10.41;47.18
6136;BME280;24008;42.664;23.372;2023-04-27T06:37:11;94656.78;;;10.93;48.32
6136;BME280;24008;42.664;23.372;2023-04-27T06:39:39;94644.41;;;10.89;48.04
6136;BME280;24008;42.664;23.372;2023-04-27T06:42:06;94646.69;;;10.92;48.02
6136;BME280;24008;42.664;23.372;2023-04-27T06:44:33;94616.97;;;10.91;47.45
6136;BME280;24008;42.664;23.372;2023-04-27T06:47:00;94640.34;;;11.31;47.89
6136;BME280;24008;42.664;23.372;2023-04-27T06:49:28;94636.13;;;11.66;46.58
6136;BME280;24008;42.664;23.372;2023-04-27T06:51:55;94646.97;;;12.03;45.66
6136;BME280;24008;42.664;23.372;2023-04-27T06:54:22;94642.09;;;12.52;44.76
6136;BME280;24008;42.664;23.372;2023-04-27T06:56:50;94482.44;;;12.25;43.20
6136;BME280;24008;42.664;23.372;2023-04-27T06:59:18;94604.56;;;13.74;41.32
6136;BME280;24008;42.664;23.372;2023-04-27T07:01:45;94630.00;;;14.71;40.14
6136;BME280;24008;42.664;23.372;2023-04-27T07:04:12;94634.25;;;14.87;39.86
6136;BME280;24008;42.664;23.372;2023-04-27T07:06:40;94530.72;;;14.15;38.71
6136;BME280;24008;42.664;23.372;2023-04-27T07:09:07;94630.66;;;14.65;38.90
6136;BME280;24008;42.664;23.372;2023-04-27T07:11:34;94626.69;;;14.55;38.72
6136;BME280;24008;42.664;23.372;2023-04-27T07:14:00;94620.47;;;14.80;38.59
6136;BME280;24008;42.664;23.372;2023-04-27T07:16:27;94576.81;;;14.64;38.49
6136;BME280;24008;42.664;23.372;2023-04-27T07:18:54;94598.59;;;15.30;38.53
6136;BME280;24008;42.664;23.372;2023-04-27T07:21:21;94627.56;;;16.21;37.29
6136;BME280;24008;42.664;23.372;2023-04-27T07:23:49;94590.38;;;16.60;36.54
6136;BME280;24008;42.664;23.372;2023-04-27T07:26:15;94614.81;;;16.79;36.02
6136;BME280;24008;42.664;23.372;2023-04-27T07:28:42;94566.19;;;16.97;33.69
6136;BME280;24008;42.664;23.372;2023-04-27T07:31:09;94579.84;;;17.34;34.48
6136;BME280;24008;42.664;23.372;2023-04-27T07:33:36;94591.50;;;17.08;34.92
6136;BME280;24008;42.664;23.372;2023-04-27T07:36:03;94587.16;;;17.09;34.55
6136;BME280;24008;42.664;23.372;2023-04-27T07:38:30;94369.97;;;15.55;34.29
6136;BME280;24008;42.664;23.372;2023-04-27T07:40:59;94617.72;;;16.90;34.45
6136;BME280;24008;42.664;23.372;2023-04-27T07:43:27;94624.91;;;16.74;34.48
6136;BME280;24008;42.664;23.372;2023-04-27T07:45:54;94500.97;;;15.72;35.17
6136;BME280;24008;42.664;23.372;2023-04-27T07:48:23;94624.03;;;16.52;34.82
6136;BME280;24008;42.664;23.372;2023-04-27T07:50:49;94565.69;;;16.07;34.74
6136;BME280;24008;42.664;23.372;2023-04-27T07:53:16;94592.00;;;16.46;34.63
6136;BME280;24008;42.664;23.372;2023-04-27T07:55:43;94625.25;;;16.71;34.18
6136;BME280;24008;42.664;23.372;2023-04-27T07:58:11;94623.66;;;16.40;34.61
6136;BME280;24008;42.664;23.372;2023-04-27T08:00:38;94573.16;;;16.02;34.24
6136;BME280;24008;42.664;23.372;2023-04-27T08:03:05;94601.59;;;16.52;34.09
6136;BME280;24008;42.664;23.372;2023-04-27T08:05:32;94525.41;;;16.92;33.51
6136;BME280;24008;42.664;23.372;2023-04-27T08:07:58;94611.81;;;18.38;33.10
6136;BME280;24008;42.664;23.372;2023-04-27T08:10:25;94579.69;;;18.25;31.05
6136;BME280;24008;42.664;23.372;2023-04-27T08:12:52;94623.69;;;18.60;30.14
6136;BME280;24008;42.664;23.372;2023-04-27T08:15:20;94595.56;;;18.16;30.67
6136;BME280;24008;42.664;23.372;2023-04-27T08:17:47;94616.69;;;17.91;30.56
6136;BME280;24008;42.664;23.372;2023-04-27T08:20:14;94521.94;;;17.49;31.90
6136;BME280;24008;42.664;23.372;2023-04-27T08:22:41;94612.31;;;19.02;30.48
6136;BME280;24008;42.664;23.372;2023-04-27T08:25:08;94622.34;;;19.31;30.12
6136;BME280;24008;42.664;23.372;2023-04-27T08:27:36;94587.78;;;18.50;29.62
6136;BME280;24008;42.664;23.372;2023-04-27T08:30:04;94551.63;;;17.60;31.25
6136;BME280;24008;42.664;23.372;2023-04-27T08:32:33;94612.97;;;17.51;32.00
6136;BME280;24008;42.664;23.372;2023-04-27T08:34:59;94224.78;;;14.90;33.78
6136;BME280;24008;42.664;23.372;2023-04-27T08:37:26;94467.31;;;16.39;32.96
6136;BME280;24008;42.664;23.372;2023-04-27T08:39:53;94621.00;;;16.78;33.59
6136;BME280;24008;42.664;23.372;2023-04-27T08:42:20;94598.13;;;16.31;33.82
6136;BME280;24008;42.664;23.372;2023-04-27T08:44:46;94576.00;;;16.07;34.69
6136;BME280;24008;42.664;23.372;2023-04-27T08:47:13;94630.44;;;16.27;33.85
6136;BME280;24008;42.664;23.372;2023-04-27T08:49:41;94621.53;;;16.29;35.47
6136;BME280;24008;42.664;23.372;2023-04-27T08:52:12;94627.38;;;15.94;34.43
6136;BME280;24008;42.664;23.372;2023-04-27T08:54:40;94626.09;;;15.75;34.50
6136;BME280;24008;42.664;23.372;2023-04-27T08:57:10;94622.97;;;15.42;35.54
6136;BME280;24008;42.664;23.372;2023-04-27T08:59:37;94615.59;;;15.62;36.58
6136;BME280;24008;42.664;23.372;2023-04-27T09:02:08;94498.81;;;14.71;35.64
6136;BME280;24008;42.664;23.372;2023-04-27T09:04:45;94483.53;;;14.08;36.74
6136;BME280;24008;42.664;23.372;2023-04-27T09:07:13;94625.22;;;14.91;36.64
6136;BME280;24008;42.664;23.372;2023-04-27T09:09:40;94497.03;;;14.10;36.99
6136;BME280;24008;42.664;23.372;2023-04-27T09:12:15;94623.41;;;15.23;36.71
6136;BME280;24008;42.664;23.372;2023-04-27T09:14:42;94554.09;;;15.21;35.66
6136;BME280;24008;42.664;23.372;2023-04-27T09:17:09;94615.19;;;16.61;36.24
6136;BME280;24008;42.664;23.372;2023-04-27T09:19:36;94605.91;;;17.81;34.24
6136;BME280;24008;42.664;23.372;2023-04-27T09:22:06;94518.31;;;17.44;31.90
6136;BME280;24008;42.664;23.372;2023-04-27T09:24:33;94604.81;;;17.69;32.60
6136;BME280;24008;42.664;23.372;2023-04-27T09:27:00;94601.00;;;17.22;34.19
6136;BME280;24008;42.664;23.372;2023-04-27T09:29:35;94601.47;;;16.90;33.53
6136;BME280;24008;42.664;23.372;2023-04-27T09:32:02;94557.31;;;16.64;33.47
6136;BME280;24008;42.664;23.372;2023-04-27T09:34:40;94601.66;;;16.59;33.68
6136;BME280;24008;42.664;23.372;2023-04-27T09:37:09;94602.06;;;16.27;34.01
6136;BME280;24008;42.664;23.372;2023-04-27T09:39:37;94592.13;;;15.71;35.02
6136;BME280;24008;42.664;23.372;2023-04-27T09:42:04;94600.84;;;15.47;35.85
6136;BME280;24008;42.664;23.372;2023-04-27T09:44:31;94469.88;;;15.44;35.24
6136;BME280;24008;42.664;23.372;2023-04-27T09:46:59;94590.38;;;16.75;34.80
6136;BME280;24008;42.664;23.372;2023-04-27T09:49:27;94591.78;;;17.13;34.38
6136;BME280;24008;42.664;23.372;2023-04-27T09:51:56;94585.78;;;17.55;33.74
6136;BME280;24008;42.664;23.372;2023-04-27T09:54:30;94370.94;;;16.04;31.88
6136;BME280;24008;42.664;23.372;2023-04-27T09:57:08;94568.84;;;17.53;31.89
6136;BME280;24008;42.664;23.372;2023-04-27T09:59:47;94542.00;;;16.62;33.08
6136;BME280;24008;42.664;23.372;2023-04-27T10:02:22;94138.13;;;13.50;33.42
6136;BME280;24008;42.664;23.372;2023-04-27T10:05:20;94582.31;;;16.04;32.83
6136;BME280;24008;42.664;23.372;2023-04-27T10:07:51;94488.13;;;14.97;34.65
6136;BME280;24008;42.664;23.372;2023-04-27T10:10:20;94460.97;;;14.57;34.63
6136;BME280;24008;42.664;23.372;2023-04-27T10:12:55;94573.03;;;14.74;35.97
6136;BME280;24008;42.664;23.372;2023-04-27T10:15:25;94415.13;;;13.29;36.36
6136;BME280;24008;42.664;23.372;2023-04-27T10:17:52;94594.63;;;14.26;36.33
6136;BME280;24008;42.664;23.372;2023-04-27T10:20:29;94592.56;;;14.22;37.68
6136;BME280;24008;42.664;23.372;2023-04-27T10:23:21;94580.81;;;14.27;37.91
6136;BME280;24008;42.664;23.372;2023-04-27T10:25:50;94512.66;;;13.92;37.18
6136;BME280;24008;42.664;23.372;2023-04-27T10:28:18;94578.66;;;14.78;36.43
6136;BME280;24008;42.664;23.372;2023-04-27T10:30:46;94393.25;;;14.11;37.04
6136;BME280;24008;42.664;23.372;2023-04-27T10:33:15;94546.22;;;15.37;35.23
6136;BME280;24008;42.664;23.372;2023-04-27T10:35:51;94571.19;;;15.52;34.98
6136;BME280;24008;42.664;23.372;2023-04-27T10:38:20;94581.25;;;15.99;34.85
6136;BME280;24008;42.664;23.372;2023-04-27T10:40:55;94531.47;;;16.78;34.19
6136;BME280;24008;42.664;23.372;2023-04-27T10:43:24;94571.91;;;17.35;33.36
6136;BME280;24008;42.664;23.372;2023-04-27T10:45:52;94564.38;;;17.61;32.90
6136;BME280;24008;42.664;23.372;2023-04-27T10:48:20;94568.25;;;17.29;32.37
6136;BME280;24008;42.664;23.372;2023-04-27T10:50:50;94575.25;;;16.72;32.29
6136;BME280;24008;42.664;23.372;2023-04-27T10:53:17;94563.19;;;16.28;31.88
6136;BME280;24008;42.664;23.372;2023-04-27T10:55:43;94494.00;;;15.29;33.16
6136;BME280;24008;42.664;23.372;2023-04-27T10:58:12;94582.00;;;15.55;33.56
6136;BME280;24008;42.664;23.372;2023-04-27T11:00:40;94573.50;;;15.46;34.03
6136;BME280;24008;42.664;23.372;2023-04-27T11:03:11;94570.81;;;15.40;34.96
6136;BME280;24008;42.664;23.372;2023-04-27T11:05:39;94564.69;;;15.64;34.68
6136;BME280;24008;42.664;23.372;2023-04-27T11:08:08;94563.91;;;15.78;34.54
6136;BME280;24008;42.664;23.372;2023-04-27T11:10:38;94502.59;;;14.98;33.92
6136;BME280;24008;42.664;23.372;2023-04-27T11:13:07;94568.34;;;15.46;34.17
6136;BME280;24008;42.664;23.372;2023-04-27T11:15:43;94570.31;;;15.22;34.20
6136;BME280;24008;42.664;23.372;2023-04-27T11:18:10;94489.34;;;14.64;34.00
6136;BME280;24008;42.664;23.372;2023-04-27T11:20:37;94572.44;;;14.95;33.73
6136;BME280;24008;42.664;23.372;2023-04-27T11:23:03;94464.84;;;14.22;34.68
6136;BME280;24008;42.664;23.372;2023-04-27T11:25:30;94582.50;;;14.82;33.55
6136;BME280;24008;42.664;23.372;2023-04-27T11:27:57;94530.56;;;14.56;34.10
6136;BME280;24008;42.664;23.372;2023-04-27T11:30:24;94568.38;;;14.78;35.45
6136;BME280;24008;42.664;23.372;2023-04-27T11:32:53;94484.19;;;14.10;35.47
6136;BME280;24008;42.664;23.372;2023-04-27T11:35:31;94504.91;;;14.09;34.86
6136;BME280;24008;42.664;23.372;2023-04-27T11:37:58;94513.59;;;14.07;36.55
6136;BME280;24008;42.664;23.372;2023-04-27T11:40:25;94359.94;;;13.33;35.91
6136;BME280;24008;42.664;23.372;2023-04-27T11:42:56;94546.09;;;14.93;35.03
6136;BME280;24008;42.664;23.372;2023-04-27T11:45:24;94575.56;;;15.51;34.98
6136;BME280;24008;42.664;23.372;2023-04-27T11:47:53;94513.72;;;15.36;34.67
6136;BME280;24008;42.664;23.372;2023-04-27T11:50:23;94580.44;;;15.83;34.49
6136;BME280;24008;42.664;23.372;2023-04-27T11:52:50;94575.38;;;15.75;34.62
6136;BME280;24008;42.664;23.372;2023-04-27T11:55:19;94541.31;;;15.28;33.56
6136;BME280;24008;42.664;23.372;2023-04-27T11:57:46;94578.75;;;15.53;34.52
6136;BME280;24008;42.664;23.372;2023-04-27T12:00:14;94566.97;;;15.36;33.73
6136;BME280;24008;42.664;23.372;2023-04-27T12:02:42;94550.75;;;15.12;35.16
6136;BME280;24008;42.664;23.372;2023-04-27T12:05:10;94563.94;;;15.18;34.99
6136;BME280;24008;42.664;23.372;2023-04-27T12:07:38;94587.16;;;15.32;35.21
6136;BME280;24008;42.664;23.372;2023-04-27T12:10:06;94536.03;;;15.06;34.68
6136;BME280;24008;42.664;23.372;2023-04-27T12:12:34;94521.50;;;14.68;34.56
6136;BME280;24008;42.664;23.372;2023-04-27T12:15:01;94600.00;;;15.09;35.50
6136;BME280;24008;42.664;23.372;2023-04-27T12:17:27;94585.09;;;14.82;35.04
6136;BME280;24008;42.664;23.372;2023-04-27T12:19:54;94570.78;;;14.49;35.26
6136;BME280;24008;42.664;23.372;2023-04-27T12:22:22;94591.25;;;14.73;35.50
6136;BME280;24008;42.664;23.372;2023-04-27T12:24:49;94601.53;;;14.73;36.13
6136;BME280;24008;42.664;23.372;2023-04-27T12:27:16;94597.38;;;14.72;35.24
6136;BME280;24008;42.664;23.372;2023-04-27T12:29:43;94566.25;;;14.51;36.69
6136;BME280;24008;42.664;23.372;2023-04-27T12:32:10;94601.88;;;14.70;36.40
6136;BME280;24008;42.664;23.372;2023-04-27T12:34:37;94461.72;;;14.04;36.18
6136;BME280;24008;42.664;23.372;2023-04-27T12:37:04;94585.75;;;14.99;35.42
6136;BME280;24008;42.664;23.372;2023-04-27T12:39:32;94588.50;;;14.97;34.42
6136;BME280;24008;42.664;23.372;2023-04-27T12:41:59;94599.41;;;15.07;35.91
6136;BME280;24008;42.664;23.372;2023-04-27T12:44:26;94521.66;;;14.66;36.20
6136;BME280;24008;42.664;23.372;2023-04-27T12:46:55;94598.38;;;15.17;35.87
6136;BME280;24008;42.664;23.372;2023-04-27T12:49:24;94594.84;;;15.09;34.98
6136;BME280;24008;42.664;23.372;2023-04-27T12:51:51;94598.53;;;14.92;35.50
6136;BME280;24008;42.664;23.372;2023-04-27T12:54:18;94593.13;;;14.79;35.42
6136;BME280;24008;42.664;23.372;2023-04-27T12:56:47;94596.97;;;14.83;35.43
6136;BME280;24008;42.664;23.372;2023-04-27T12:59:14;94569.72;;;14.66;35.33
6136;BME280;24008;42.664;23.372;2023-04-27T13:01:41;94591.06;;;14.97;35.27
6136;BME280;24008;42.664;23.372;2023-04-27T13:04:08;94562.25;;;14.79;35.37
6136;BME280;24008;42.664;23.372;2023-04-27T13:06:35;94610.69;;;14.98;35.32
6136;BME280;24008;42.664;23.372;2023-04-27T13:09:02;94599.66;;;14.90;35.24